sensor_id;sensor_type;location;lat;lon;timestamp;P1;durP1;ratioP1;P2;durP2;ratioP2
20491;SDS011;10404;51.468;6.762;2023-12-20T00:00:16;14.52;;;7.90;;
20491;SDS011;10404;51.468;6.762;2023-12-20T00:02:42;14.77;;;8.57;;
20491;SDS011;10404;51.468;6.762;2023-12-20T00:05:12;18.08;;;8.27;;
20491;SDS011;10404;51.468;6.762;2023-12-20T00:07:38;15.90;;;8.40;;
20491;SDS011;10404;51.468;6.762;2023-12-20T00:10:04;13.30;;;7.53;;
20491;SDS011;10404;51.468;6.762;2023-12-20T00:12:29;15.15;;;8.55;;
20491;SDS011;10404;51.468;6.762;2023-12-20T00:14:55;12.98;;;7.15;;
20491;SDS011;10404;51.468;6.762;2023-12-20T00:17:20;14.07;;;8.10;;
20491;SDS011;10404;51.468;6.762;2023-12-20T00:19:46;14.77;;;7.82;;
20491;SDS011;10404;51.468;6.762;2023-12-20T00:22:11;15.40;;;7.32;;
20491;SDS011;10404;51.468;6.762;2023-12-20T00:24:37;14.00;;;7.53;;
20491;SDS011;10404;51.468;6.762;2023-12-20T00:27:03;14.38;;;7.40;;
20491;SDS011;10404;51.468;6.762;2023-12-20T00:29:31;14.75;;;8.70;;
20491;SDS011;10404;51.468;6.762;2023-12-20T00:31:57;14.02;;;7.75;;
20491;SDS011;10404;51.468;6.762;2023-12-20T00:34:22;13.10;;;7.45;;
20491;SDS011;10404;51.468;6.762;2023-12-20T00:36:48;14.27;;;7.95;;
20491;SDS011;10404;51.468;6.762;2023-12-20T00:39:13;13.80;;;6.95;;
20491;SDS011;10404;51.468;6.762;2023-12-20T00:41:39;15.43;;;7.60;;
20491;SDS011;10404;51.468;6.762;2023-12-20T00:44:05;14.07;;;6.90;;
20491;SDS011;10404;51.468;6.762;2023-12-20T00:46:30;13.27;;;6.80;;
20491;SDS011;10404;51.468;6.762;2023-12-20T00:48:56;14.85;;;7.32;;
20491;SDS011;10404;51.468;6.762;2023-12-20T00:51:21;12.95;;;6.55;;
20491;SDS011;10404;51.468;6.762;2023-12-20T00:53:48;12.13;;;7.13;;
20491;SDS011;10404;51.468;6.762;2023-12-20T00:56:15;13.50;;;7.72;;
20491;SDS011;10404;51.468;6.762;2023-12-20T00:58:40;12.80;;;6.90;;
20491;SDS011;10404;51.468;6.762;2023-12-20T01:01:06;10.57;;;6.95;;
20491;SDS011;10404;51.468;6.762;2023-12-20T01:03:32;15.10;;;7.00;;
20491;SDS011;10404;51.468;6.762;2023-12-20T01:05:57;12.15;;;6.90;;
20491;SDS011;10404;51.468;6.762;2023-12-20T01:08:23;11.32;;;6.65;;
20491;SDS011;10404;51.468;6.762;2023-12-20T01:10:48;11.88;;;6.18;;
20491;SDS011;10404;51.468;6.762;2023-12-20T01:13:14;9.57;;;5.65;;
20491;SDS011;10404;51.468;6.762;2023-12-20T01:15:39;14.60;;;7.22;;
20491;SDS011;10404;51.468;6.762;2023-12-20T01:18:05;13.82;;;6.38;;
20491;SDS011;10404;51.468;6.762;2023-12-20T01:20:30;10.57;;;6.15;;
20491;SDS011;10404;51.468;6.762;2023-12-20T01:22:56;12.60;;;6.63;;
20491;SDS011;10404;51.468;6.762;2023-12-20T01:25:22;11.15;;;5.75;;
20491;SDS011;10404;51.468;6.762;2023-12-20T01:27:47;11.88;;;6.47;;
20491;SDS011;10404;51.468;6.762;2023-12-20T01:30:13;12.95;;;5.53;;
20491;SDS011;10404;51.468;6.762;2023-12-20T01:32:39;10.15;;;6.40;;
20491;SDS011;10404;51.468;6.762;2023-12-20T01:35:05;11.27;;;5.63;;
20491;SDS011;10404;51.468;6.762;2023-12-20T01:37:30;11.93;;;6.40;;
20491;SDS011;10404;51.468;6.762;2023-12-20T01:39:56;11.25;;;5.35;;
20491;SDS011;10404;51.468;6.762;2023-12-20T01:42:21;10.63;;;5.82;;
20491;SDS011;10404;51.468;6.762;2023-12-20T01:44:48;10.52;;;5.32;;
20491;SDS011;10404;51.468;6.762;2023-12-20T01:47:13;9.77;;;5.38;;
20491;SDS011;10404;51.468;6.762;2023-12-20T01:49:39;11.55;;;5.93;;
20491;SDS011;10404;51.468;6.762;2023-12-20T01:52:05;11.98;;;5.35;;
20491;SDS011;10404;51.468;6.762;2023-12-20T01:54:32;10.77;;;5.50;;
20491;SDS011;10404;51.468;6.762;2023-12-20T01:56:57;10.25;;;5.28;;
20491;SDS011;10404;51.468;6.762;2023-12-20T01:59:23;11.23;;;6.68;;
20491;SDS011;10404;51.468;6.762;2023-12-20T02:01:49;10.57;;;5.22;;
20491;SDS011;10404;51.468;6.762;2023-12-20T02:04:15;12.55;;;5.88;;
20491;SDS011;10404;51.468;6.762;2023-12-20T02:06:41;9.38;;;5.72;;
20491;SDS011;10404;51.468;6.762;2023-12-20T02:09:08;8.88;;;4.80;;
20491;SDS011;10404;51.468;6.762;2023-12-20T02:11:34;10.30;;;5.05;;
20491;SDS011;10404;51.468;6.762;2023-12-20T02:14:01;12.70;;;4.95;;
20491;SDS011;10404;51.468;6.762;2023-12-20T02:16:26;9.80;;;5.43;;
20491;SDS011;10404;51.468;6.762;2023-12-20T02:18:53;10.40;;;5.68;;
20491;SDS011;10404;51.468;6.762;2023-12-20T02:21:23;10.90;;;5.18;;
20491;SDS011;10404;51.468;6.762;2023-12-20T02:23:59;11.90;;;5.32;;
20491;SDS011;10404;51.468;6.762;2023-12-20T02:26:25;11.15;;;5.63;;
20491;SDS011;10404;51.468;6.762;2023-12-20T02:28:51;10.65;;;5.20;;
20491;SDS011;10404;51.468;6.762;2023-12-20T02:31:17;9.38;;;5.43;;
20491;SDS011;10404;51.468;6.762;2023-12-20T02:33:47;9.65;;;4.72;;
20491;SDS011;10404;51.468;6.762;2023-12-20T02:36:12;9.45;;;5.03;;
20491;SDS011;10404;51.468;6.762;2023-12-20T02:38:38;11.90;;;5.57;;
20491;SDS011;10404;51.468;6.762;2023-12-20T02:41:03;9.05;;;4.57;;
20491;SDS011;10404;51.468;6.762;2023-12-20T02:43:29;10.57;;;5.63;;
20491;SDS011;10404;51.468;6.762;2023-12-20T02:45:54;10.15;;;5.10;;
20491;SDS011;10404;51.468;6.762;2023-12-20T02:48:20;9.73;;;5.63;;
20491;SDS011;10404;51.468;6.762;2023-12-20T02:50:46;9.02;;;4.78;;
20491;SDS011;10404;51.468;6.762;2023-12-20T02:53:13;10.40;;;5.05;;
20491;SDS011;10404;51.468;6.762;2023-12-20T02:55:38;7.35;;;4.75;;
20491;SDS011;10404;51.468;6.762;2023-12-20T02:58:04;10.25;;;4.68;;
20491;SDS011;10404;51.468;6.762;2023-12-20T03:00:29;9.38;;;4.70;;
20491;SDS011;10404;51.468;6.762;2023-12-20T03:02:55;8.48;;;4.53;;
20491;SDS011;10404;51.468;6.762;2023-12-20T03:05:20;8.35;;;4.05;;
20491;SDS011;10404;51.468;6.762;2023-12-20T03:07:46;8.73;;;4.72;;
20491;SDS011;10404;51.468;6.762;2023-12-20T03:10:11;12.35;;;5.57;;
20491;SDS011;10404;51.468;6.762;2023-12-20T03:12:37;9.77;;;4.55;;
20491;SDS011;10404;51.468;6.762;2023-12-20T03:15:03;7.47;;;3.60;;
20491;SDS011;10404;51.468;6.762;2023-12-20T03:17:28;7.85;;;3.97;;
20491;SDS011;10404;51.468;6.762;2023-12-20T03:19:54;10.10;;;3.97;;
20491;SDS011;10404;51.468;6.762;2023-12-20T03:22:19;7.82;;;4.35;;
20491;SDS011;10404;51.468;6.762;2023-12-20T03:24:45;6.90;;;4.10;;
20491;SDS011;10404;51.468;6.762;2023-12-20T03:27:10;10.10;;;3.53;;
20491;SDS011;10404;51.468;6.762;2023-12-20T03:29:36;7.80;;;3.35;;
20491;SDS011;10404;51.468;6.762;2023-12-20T03:32:02;7.28;;;3.45;;
20491;SDS011;10404;51.468;6.762;2023-12-20T03:34:27;7.97;;;2.80;;
20491;SDS011;10404;51.468;6.762;2023-12-20T03:36:54;9.45;;;3.63;;
20491;SDS011;10404;51.468;6.762;2023-12-20T03:39:19;7.38;;;3.40;;
20491;SDS011;10404;51.468;6.762;2023-12-20T03:41:45;7.45;;;3.38;;
20491;SDS011;10404;51.468;6.762;2023-12-20T03:44:10;7.78;;;3.50;;
20491;SDS011;10404;51.468;6.762;2023-12-20T03:46:36;6.38;;;3.58;;
20491;SDS011;10404;51.468;6.762;2023-12-20T03:49:01;7.53;;;2.95;;
20491;SDS011;10404;51.468;6.762;2023-12-20T03:51:27;8.07;;;3.63;;
20491;SDS011;10404;51.468;6.762;2023-12-20T03:53:52;6.97;;;2.67;;
20491;SDS011;10404;51.468;6.762;2023-12-20T03:56:18;7.88;;;3.45;;
20491;SDS011;10404;51.468;6.762;2023-12-20T03:58:43;6.97;;;2.30;;
20491;SDS011;10404;51.468;6.762;2023-12-20T04:01:09;6.40;;;2.50;;
20491;SDS011;10404;51.468;6.762;2023-12-20T04:03:37;6.13;;;2.78;;
20491;SDS011;10404;51.468;6.762;2023-12-20T04:06:03;7.93;;;3.00;;
20491;SDS011;10404;51.468;6.762;2023-12-20T04:08:29;6.75;;;2.80;;
20491;SDS011;10404;51.468;6.762;2023-12-20T04:10:54;7.38;;;2.72;;
20491;SDS011;10404;51.468;6.762;2023-12-20T04:13:20;5.72;;;2.10;;
20491;SDS011;10404;51.468;6.762;2023-12-20T04:15:45;5.30;;;2.28;;
20491;SDS011;10404;51.468;6.762;2023-12-20T04:18:11;6.72;;;2.78;;
20491;SDS011;10404;51.468;6.762;2023-12-20T04:20:37;5.28;;;2.47;;
20491;SDS011;10404;51.468;6.762;2023-12-20T04:23:02;5.75;;;3.22;;
20491;SDS011;10404;51.468;6.762;2023-12-20T04:25:28;5.75;;;1.92;;
20491;SDS011;10404;51.468;6.762;2023-12-20T04:27:53;6.72;;;2.17;;
20491;SDS011;10404;51.468;6.762;2023-12-20T04:30:19;5.63;;;2.10;;
20491;SDS011;10404;51.468;6.762;2023-12-20T04:32:44;5.70;;;2.65;;
20491;SDS011;10404;51.468;6.762;2023-12-20T04:35:10;6.28;;;2.28;;
20491;SDS011;10404;51.468;6.762;2023-12-20T04:37:35;6.03;;;2.22;;
20491;SDS011;10404;51.468;6.762;2023-12-20T04:40:01;4.65;;;2.08;;
20491;SDS011;10404;51.468;6.762;2023-12-20T04:42:27;7.47;;;2.50;;
20491;SDS011;10404;51.468;6.762;2023-12-20T04:44:52;6.63;;;2.67;;
20491;SDS011;10404;51.468;6.762;2023-12-20T04:47:18;7.32;;;2.28;;
20491;SDS011;10404;51.468;6.762;2023-12-20T04:49:43;10.05;;;2.00;;
20491;SDS011;10404;51.468;6.762;2023-12-20T04:52:09;7.22;;;2.08;;
20491;SDS011;10404;51.468;6.762;2023-12-20T04:54:34;6.72;;;2.50;;
20491;SDS011;10404;51.468;6.762;2023-12-20T04:57:00;5.85;;;2.58;;
20491;SDS011;10404;51.468;6.762;2023-12-20T04:59:25;7.97;;;1.88;;
20491;SDS011;10404;51.468;6.762;2023-12-20T05:01:51;5.43;;;2.45;;
20491;SDS011;10404;51.468;6.762;2023-12-20T05:04:17;4.75;;;2.35;;
20491;SDS011;10404;51.468;6.762;2023-12-20T05:06:42;5.55;;;2.20;;
20491;SDS011;10404;51.468;6.762;2023-12-20T05:09:08;4.38;;;2.10;;
20491;SDS011;10404;51.468;6.762;2023-12-20T05:11:34;7.90;;;2.55;;
20491;SDS011;10404;51.468;6.762;2023-12-20T05:13:59;7.38;;;2.55;;
20491;SDS011;10404;51.468;6.762;2023-12-20T05:16:25;5.30;;;2.25;;
20491;SDS011;10404;51.468;6.762;2023-12-20T05:18:50;5.43;;;2.47;;
20491;SDS011;10404;51.468;6.762;2023-12-20T05:21:17;6.78;;;2.67;;
20491;SDS011;10404;51.468;6.762;2023-12-20T05:23:42;6.97;;;3.08;;
20491;SDS011;10404;51.468;6.762;2023-12-20T05:26:08;8.05;;;2.80;;
20491;SDS011;10404;51.468;6.762;2023-12-20T05:28:34;8.38;;;2.95;;
20491;SDS011;10404;51.468;6.762;2023-12-20T05:30:59;5.25;;;2.35;;
20491;SDS011;10404;51.468;6.762;2023-12-20T05:33:25;7.55;;;2.83;;
20491;SDS011;10404;51.468;6.762;2023-12-20T05:35:50;7.22;;;3.22;;
20491;SDS011;10404;51.468;6.762;2023-12-20T05:38:16;6.97;;;3.17;;
20491;SDS011;10404;51.468;6.762;2023-12-20T05:40:42;8.43;;;3.10;;
20491;SDS011;10404;51.468;6.762;2023-12-20T05:43:07;7.60;;;3.03;;
20491;SDS011;10404;51.468;6.762;2023-12-20T05:45:33;7.50;;;3.20;;
20491;SDS011;10404;51.468;6.762;2023-12-20T05:47:59;5.78;;;2.90;;
20491;SDS011;10404;51.468;6.762;2023-12-20T05:50:25;8.43;;;3.45;;
20491;SDS011;10404;51.468;6.762;2023-12-20T05:52:51;9.07;;;3.80;;
20491;SDS011;10404;51.468;6.762;2023-12-20T05:55:17;8.05;;;3.10;;
20491;SDS011;10404;51.468;6.762;2023-12-20T05:57:42;6.15;;;3.05;;
20491;SDS011;10404;51.468;6.762;2023-12-20T06:00:08;6.88;;;3.28;;
20491;SDS011;10404;51.468;6.762;2023-12-20T06:02:34;5.68;;;3.05;;
20491;SDS011;10404;51.468;6.762;2023-12-20T06:05:01;10.05;;;3.75;;
20491;SDS011;10404;51.468;6.762;2023-12-20T06:07:29;9.45;;;3.60;;
20491;SDS011;10404;51.468;6.762;2023-12-20T06:09:54;9.05;;;3.53;;
20491;SDS011;10404;51.468;6.762;2023-12-20T06:12:20;7.38;;;2.80;;
20491;SDS011;10404;51.468;6.762;2023-12-20T06:14:45;9.13;;;3.15;;
20491;SDS011;10404;51.468;6.762;2023-12-20T06:17:11;8.77;;;4.53;;
20491;SDS011;10404;51.468;6.762;2023-12-20T06:19:36;10.25;;;4.68;;
20491;SDS011;10404;51.468;6.762;2023-12-20T06:22:02;7.45;;;3.72;;
20491;SDS011;10404;51.468;6.762;2023-12-20T06:24:28;6.95;;;3.80;;
20491;SDS011;10404;51.468;6.762;2023-12-20T06:26:54;7.85;;;3.92;;
20491;SDS011;10404;51.468;6.762;2023-12-20T06:29:20;6.65;;;3.85;;
20491;SDS011;10404;51.468;6.762;2023-12-20T06:31:45;7.70;;;3.88;;
20491;SDS011;10404;51.468;6.762;2023-12-20T06:34:11;8.18;;;4.45;;
20491;SDS011;10404;51.468;6.762;2023-12-20T06:36:37;7.57;;;4.18;;
20491;SDS011;10404;51.468;6.762;2023-12-20T06:39:02;10.23;;;4.88;;
20491;SDS011;10404;51.468;6.762;2023-12-20T06:41:29;10.07;;;4.22;;
20491;SDS011;10404;51.468;6.762;2023-12-20T06:43:55;10.23;;;4.63;;
20491;SDS011;10404;51.468;6.762;2023-12-20T06:46:20;10.48;;;4.03;;
20491;SDS011;10404;51.468;6.762;2023-12-20T06:48:46;8.25;;;4.50;;
20491;SDS011;10404;51.468;6.762;2023-12-20T06:51:13;9.13;;;4.63;;
20491;SDS011;10404;51.468;6.762;2023-12-20T06:53:40;9.40;;;3.97;;
20491;SDS011;10404;51.468;6.762;2023-12-20T06:56:05;8.38;;;3.78;;
20491;SDS011;10404;51.468;6.762;2023-12-20T06:58:32;8.85;;;4.18;;
20491;SDS011;10404;51.468;6.762;2023-12-20T07:00:58;9.25;;;4.13;;
20491;SDS011;10404;51.468;6.762;2023-12-20T07:03:23;9.32;;;4.03;;
20491;SDS011;10404;51.468;6.762;2023-12-20T07:05:49;9.07;;;4.07;;
20491;SDS011;10404;51.468;6.762;2023-12-20T07:08:14;7.13;;;3.20;;
20491;SDS011;10404;51.468;6.762;2023-12-20T07:10:40;8.65;;;4.72;;
20491;SDS011;10404;51.468;6.762;2023-12-20T07:13:06;10.05;;;3.60;;
20491;SDS011;10404;51.468;6.762;2023-12-20T07:15:32;7.78;;;3.70;;
20491;SDS011;10404;51.468;6.762;2023-12-20T07:17:58;8.57;;;4.20;;
20491;SDS011;10404;51.468;6.762;2023-12-20T07:20:25;11.05;;;4.47;;
20491;SDS011;10404;51.468;6.762;2023-12-20T07:22:51;9.68;;;4.00;;
20491;SDS011;10404;51.468;6.762;2023-12-20T07:25:16;9.55;;;4.63;;
20491;SDS011;10404;51.468;6.762;2023-12-20T07:27:42;11.27;;;3.92;;
20491;SDS011;10404;51.468;6.762;2023-12-20T07:30:08;7.85;;;3.33;;
20491;SDS011;10404;51.468;6.762;2023-12-20T07:32:34;12.48;;;3.90;;
20491;SDS011;10404;51.468;6.762;2023-12-20T07:35:00;7.90;;;3.30;;
20491;SDS011;10404;51.468;6.762;2023-12-20T07:37:27;7.53;;;3.60;;
20491;SDS011;10404;51.468;6.762;2023-12-20T07:39:53;7.47;;;3.45;;
20491;SDS011;10404;51.468;6.762;2023-12-20T07:42:19;8.00;;;3.28;;
20491;SDS011;10404;51.468;6.762;2023-12-20T07:44:44;8.95;;;3.28;;
20491;SDS011;10404;51.468;6.762;2023-12-20T07:47:10;7.82;;;3.10;;
20491;SDS011;10404;51.468;6.762;2023-12-20T07:49:40;9.15;;;4.22;;
20491;SDS011;10404;51.468;6.762;2023-12-20T07:52:06;10.90;;;3.83;;
20491;SDS011;10404;51.468;6.762;2023-12-20T07:54:31;8.07;;;3.20;;
20491;SDS011;10404;51.468;6.762;2023-12-20T07:56:57;7.07;;;3.53;;
20491;SDS011;10404;51.468;6.762;2023-12-20T07:59:22;9.38;;;3.92;;
20491;SDS011;10404;51.468;6.762;2023-12-20T08:01:48;8.15;;;3.63;;
20491;SDS011;10404;51.468;6.762;2023-12-20T08:04:13;8.23;;;3.13;;
20491;SDS011;10404;51.468;6.762;2023-12-20T08:06:39;9.05;;;3.67;;
20491;SDS011;10404;51.468;6.762;2023-12-20T08:09:04;9.88;;;3.80;;
20491;SDS011;10404;51.468;6.762;2023-12-20T08:11:30;7.40;;;3.67;;
20491;SDS011;10404;51.468;6.762;2023-12-20T08:13:56;7.57;;;3.40;;
20491;SDS011;10404;51.468;6.762;2023-12-20T08:16:25;7.75;;;3.47;;
20491;SDS011;10404;51.468;6.762;2023-12-20T08:18:51;8.45;;;3.80;;
20491;SDS011;10404;51.468;6.762;2023-12-20T08:21:17;7.28;;;3.22;;
20491;SDS011;10404;51.468;6.762;2023-12-20T08:23:45;9.73;;;3.60;;
20491;SDS011;10404;51.468;6.762;2023-12-20T08:26:11;7.10;;;3.50;;
20491;SDS011;10404;51.468;6.762;2023-12-20T08:28:36;10.55;;;4.47;;
20491;SDS011;10404;51.468;6.762;2023-12-20T08:31:02;8.70;;;4.05;;
20491;SDS011;10404;51.468;6.762;2023-12-20T08:33:28;7.43;;;3.75;;
20491;SDS011;10404;51.468;6.762;2023-12-20T08:35:53;9.82;;;3.75;;
20491;SDS011;10404;51.468;6.762;2023-12-20T08:38:19;8.70;;;3.70;;
20491;SDS011;10404;51.468;6.762;2023-12-20T08:40:44;10.07;;;3.95;;
20491;SDS011;10404;51.468;6.762;2023-12-20T08:43:10;8.38;;;3.78;;
20491;SDS011;10404;51.468;6.762;2023-12-20T08:45:36;8.25;;;3.40;;
20491;SDS011;10404;51.468;6.762;2023-12-20T08:48:02;8.02;;;3.60;;
20491;SDS011;10404;51.468;6.762;2023-12-20T08:50:30;12.10;;;4.50;;
20491;SDS011;10404;51.468;6.762;2023-12-20T08:52:56;9.90;;;4.05;;
20491;SDS011;10404;51.468;6.762;2023-12-20T08:55:22;6.72;;;3.40;;
20491;SDS011;10404;51.468;6.762;2023-12-20T08:57:47;8.30;;;3.38;;
20491;SDS011;10404;51.468;6.762;2023-12-20T09:00:14;7.20;;;3.67;;
20491;SDS011;10404;51.468;6.762;2023-12-20T09:02:39;7.18;;;3.40;;
20491;SDS011;10404;51.468;6.762;2023-12-20T09:05:06;8.18;;;3.10;;
20491;SDS011;10404;51.468;6.762;2023-12-20T09:07:32;8.38;;;3.20;;
20491;SDS011;10404;51.468;6.762;2023-12-20T09:09:58;7.72;;;3.80;;
20491;SDS011;10404;51.468;6.762;2023-12-20T09:12:23;5.85;;;3.13;;
20491;SDS011;10404;51.468;6.762;2023-12-20T09:14:50;8.60;;;2.90;;
20491;SDS011;10404;51.468;6.762;2023-12-20T09:17:16;6.43;;;3.17;;
20491;SDS011;10404;51.468;6.762;2023-12-20T09:19:43;9.20;;;2.97;;
20491;SDS011;10404;51.468;6.762;2023-12-20T09:22:09;8.27;;;3.13;;
20491;SDS011;10404;51.468;6.762;2023-12-20T09:24:35;6.32;;;3.10;;
20491;SDS011;10404;51.468;6.762;2023-12-20T09:27:01;8.05;;;3.33;;
20491;SDS011;10404;51.468;6.762;2023-12-20T09:29:27;9.70;;;3.38;;
20491;SDS011;10404;51.468;6.762;2023-12-20T09:31:52;4.25;;;2.60;;
20491;SDS011;10404;51.468;6.762;2023-12-20T09:34:18;11.25;;;4.22;;
20491;SDS011;10404;51.468;6.762;2023-12-20T09:36:44;6.38;;;2.97;;
20491;SDS011;10404;51.468;6.762;2023-12-20T09:39:13;8.45;;;2.95;;
20491;SDS011;10404;51.468;6.762;2023-12-20T09:41:41;6.93;;;3.03;;
20491;SDS011;10404;51.468;6.762;2023-12-20T09:44:14;5.47;;;2.65;;
20491;SDS011;10404;51.468;6.762;2023-12-20T09:46:42;6.55;;;2.50;;
20491;SDS011;10404;51.468;6.762;2023-12-20T09:49:09;7.63;;;3.13;;
20491;SDS011;10404;51.468;6.762;2023-12-20T09:51:35;7.75;;;3.22;;
20491;SDS011;10404;51.468;6.762;2023-12-20T09:54:02;6.65;;;2.97;;
20491;SDS011;10404;51.468;6.762;2023-12-20T09:56:29;4.97;;;2.70;;
20491;SDS011;10404;51.468;6.762;2023-12-20T09:58:55;8.27;;;3.15;;
20491;SDS011;10404;51.468;6.762;2023-12-20T10:01:21;7.55;;;3.17;;
20491;SDS011;10404;51.468;6.762;2023-12-20T10:03:47;6.45;;;2.40;;
20491;SDS011;10404;51.468;6.762;2023-12-20T10:06:15;5.80;;;2.63;;
20491;SDS011;10404;51.468;6.762;2023-12-20T10:08:41;10.43;;;2.83;;
20491;SDS011;10404;51.468;6.762;2023-12-20T10:11:06;8.65;;;3.20;;
20491;SDS011;10404;51.468;6.762;2023-12-20T10:13:32;7.97;;;3.17;;
20491;SDS011;10404;51.468;6.762;2023-12-20T10:15:58;8.45;;;2.72;;
20491;SDS011;10404;51.468;6.762;2023-12-20T10:18:25;6.95;;;3.72;;
20491;SDS011;10404;51.468;6.762;2023-12-20T10:20:53;7.20;;;3.08;;
20491;SDS011;10404;51.468;6.762;2023-12-20T10:23:19;10.10;;;3.45;;
20491;SDS011;10404;51.468;6.762;2023-12-20T10:25:50;8.15;;;3.00;;
20491;SDS011;10404;51.468;6.762;2023-12-20T10:28:22;5.05;;;2.80;;
20491;SDS011;10404;51.468;6.762;2023-12-20T10:30:50;5.90;;;3.15;;
20491;SDS011;10404;51.468;6.762;2023-12-20T10:33:28;8.10;;;4.18;;
20491;SDS011;10404;51.468;6.762;2023-12-20T10:35:55;7.18;;;3.30;;
20491;SDS011;10404;51.468;6.762;2023-12-20T10:38:21;11.68;;;3.33;;
20491;SDS011;10404;51.468;6.762;2023-12-20T10:40:47;7.63;;;3.17;;
20491;SDS011;10404;51.468;6.762;2023-12-20T10:43:13;7.30;;;3.38;;
20491;SDS011;10404;51.468;6.762;2023-12-20T10:45:40;7.97;;;3.00;;
20491;SDS011;10404;51.468;6.762;2023-12-20T10:48:07;5.15;;;2.75;;
20491;SDS011;10404;51.468;6.762;2023-12-20T10:50:36;5.88;;;3.15;;
20491;SDS011;10404;51.468;6.762;2023-12-20T10:53:04;8.45;;;3.13;;
20491;SDS011;10404;51.468;6.762;2023-12-20T10:55:29;6.07;;;3.50;;
20491;SDS011;10404;51.468;6.762;2023-12-20T10:58:01;5.70;;;3.20;;
20491;SDS011;10404;51.468;6.762;2023-12-20T11:00:31;6.57;;;2.67;;
20491;SDS011;10404;51.468;6.762;2023-12-20T11:03:00;9.15;;;2.92;;
20491;SDS011;10404;51.468;6.762;2023-12-20T11:05:34;8.65;;;3.25;;
20491;SDS011;10404;51.468;6.762;2023-12-20T11:13:16;8.10;;;4.00;;
20491;SDS011;10404;51.468;6.762;2023-12-20T11:15:47;6.35;;;2.80;;
20491;SDS011;10404;51.468;6.762;2023-12-20T11:18:13;9.73;;;3.40;;
20491;SDS011;10404;51.468;6.762;2023-12-20T11:20:41;8.43;;;3.55;;
20491;SDS011;10404;51.468;6.762;2023-12-20T11:23:10;5.07;;;3.22;;
20491;SDS011;10404;51.468;6.762;2023-12-20T11:25:48;9.27;;;4.60;;
20491;SDS011;10404;51.468;6.762;2023-12-20T11:28:22;8.63;;;3.65;;
20491;SDS011;10404;51.468;6.762;2023-12-20T11:30:52;8.68;;;3.50;;
20491;SDS011;10404;51.468;6.762;2023-12-20T11:33:23;12.82;;;3.25;;
20491;SDS011;10404;51.468;6.762;2023-12-20T11:35:50;9.48;;;4.05;;
20491;SDS011;10404;51.468;6.762;2023-12-20T11:38:15;8.77;;;3.92;;
20491;SDS011;10404;51.468;6.762;2023-12-20T11:40:41;11.73;;;4.00;;
20491;SDS011;10404;51.468;6.762;2023-12-20T11:43:08;7.20;;;3.45;;
20491;SDS011;10404;51.468;6.762;2023-12-20T11:45:34;9.07;;;4.20;;
20491;SDS011;10404;51.468;6.762;2023-12-20T11:48:01;7.07;;;3.50;;
20491;SDS011;10404;51.468;6.762;2023-12-20T11:50:27;8.90;;;3.10;;
20491;SDS011;10404;51.468;6.762;2023-12-20T11:52:54;9.77;;;4.10;;
20491;SDS011;10404;51.468;6.762;2023-12-20T11:55:23;8.35;;;4.10;;
20491;SDS011;10404;51.468;6.762;2023-12-20T11:57:50;12.65;;;4.55;;
20491;SDS011;10404;51.468;6.762;2023-12-20T12:00:16;6.20;;;3.75;;
20491;SDS011;10404;51.468;6.762;2023-12-20T12:02:43;7.70;;;3.70;;
20491;SDS011;10404;51.468;6.762;2023-12-20T12:05:08;12.45;;;4.78;;
20491;SDS011;10404;51.468;6.762;2023-12-20T12:07:34;7.72;;;3.78;;
20491;SDS011;10404;51.468;6.762;2023-12-20T12:10:00;11.07;;;3.63;;
20491;SDS011;10404;51.468;6.762;2023-12-20T12:12:25;9.48;;;4.07;;
20491;SDS011;10404;51.468;6.762;2023-12-20T12:14:52;11.15;;;4.72;;
20491;SDS011;10404;51.468;6.762;2023-12-20T12:17:18;8.40;;;4.43;;
20491;SDS011;10404;51.468;6.762;2023-12-20T12:19:44;11.77;;;4.80;;
20491;SDS011;10404;51.468;6.762;2023-12-20T12:22:13;9.93;;;3.63;;
20491;SDS011;10404;51.468;6.762;2023-12-20T12:24:41;8.80;;;4.13;;
20491;SDS011;10404;51.468;6.762;2023-12-20T12:27:11;8.88;;;4.03;;
20491;SDS011;10404;51.468;6.762;2023-12-20T12:29:37;7.53;;;3.95;;
20491;SDS011;10404;51.468;6.762;2023-12-20T12:32:07;9.55;;;4.22;;
20491;SDS011;10404;51.468;6.762;2023-12-20T12:34:34;6.85;;;3.78;;
20491;SDS011;10404;51.468;6.762;2023-12-20T12:37:01;7.55;;;4.63;;
20491;SDS011;10404;51.468;6.762;2023-12-20T12:39:27;8.43;;;4.22;;
20491;SDS011;10404;51.468;6.762;2023-12-20T12:41:54;7.95;;;4.72;;
20491;SDS011;10404;51.468;6.762;2023-12-20T12:44:20;8.40;;;4.50;;
20491;SDS011;10404;51.468;6.762;2023-12-20T12:46:48;7.32;;;3.92;;
20491;SDS011;10404;51.468;6.762;2023-12-20T12:49:18;8.05;;;3.85;;
20491;SDS011;10404;51.468;6.762;2023-12-20T12:51:46;6.90;;;4.13;;
20491;SDS011;10404;51.468;6.762;2023-12-20T12:54:12;7.55;;;4.20;;
20491;SDS011;10404;51.468;6.762;2023-12-20T12:56:38;7.50;;;4.40;;
20491;SDS011;10404;51.468;6.762;2023-12-20T12:59:04;11.07;;;3.38;;
20491;SDS011;10404;51.468;6.762;2023-12-20T13:01:30;7.53;;;3.45;;
20491;SDS011;10404;51.468;6.762;2023-12-20T13:03:56;8.18;;;4.60;;
20491;SDS011;10404;51.468;6.762;2023-12-20T13:06:22;8.85;;;4.10;;
20491;SDS011;10404;51.468;6.762;2023-12-20T13:08:47;9.02;;;3.40;;
20491;SDS011;10404;51.468;6.762;2023-12-20T13:11:13;6.57;;;3.50;;
20491;SDS011;10404;51.468;6.762;2023-12-20T13:13:38;5.03;;;3.90;;
20491;SDS011;10404;51.468;6.762;2023-12-20T13:16:04;11.98;;;4.57;;
20491;SDS011;10404;51.468;6.762;2023-12-20T13:18:30;10.43;;;4.68;;
20491;SDS011;10404;51.468;6.762;2023-12-20T13:20:55;8.45;;;4.43;;
20491;SDS011;10404;51.468;6.762;2023-12-20T13:23:21;7.90;;;4.30;;
20491;SDS011;10404;51.468;6.762;2023-12-20T13:25:46;9.27;;;4.45;;
20491;SDS011;10404;51.468;6.762;2023-12-20T13:28:12;7.40;;;3.78;;
20491;SDS011;10404;51.468;6.762;2023-12-20T13:30:38;12.85;;;4.60;;
20491;SDS011;10404;51.468;6.762;2023-12-20T13:33:05;7.53;;;3.97;;
20491;SDS011;10404;51.468;6.762;2023-12-20T13:35:31;7.13;;;4.57;;
20491;SDS011;10404;51.468;6.762;2023-12-20T13:37:57;8.40;;;4.32;;
20491;SDS011;10404;51.468;6.762;2023-12-20T13:40:23;7.70;;;4.07;;
20491;SDS011;10404;51.468;6.762;2023-12-20T13:42:48;9.10;;;4.68;;
20491;SDS011;10404;51.468;6.762;2023-12-20T13:45:14;10.55;;;4.68;;
20491;SDS011;10404;51.468;6.762;2023-12-20T13:47:40;8.77;;;4.82;;
20491;SDS011;10404;51.468;6.762;2023-12-20T13:50:05;10.70;;;5.55;;
20491;SDS011;10404;51.468;6.762;2023-12-20T13:52:31;7.05;;;4.78;;
20491;SDS011;10404;51.468;6.762;2023-12-20T13:54:57;7.75;;;4.55;;
20491;SDS011;10404;51.468;6.762;2023-12-20T13:57:22;8.35;;;4.80;;
20491;SDS011;10404;51.468;6.762;2023-12-20T13:59:48;9.13;;;5.10;;
20491;SDS011;10404;51.468;6.762;2023-12-20T14:02:13;8.30;;;4.53;;
20491;SDS011;10404;51.468;6.762;2023-12-20T14:04:41;6.68;;;4.00;;
20491;SDS011;10404;51.468;6.762;2023-12-20T14:07:10;8.80;;;4.20;;
20491;SDS011;10404;51.468;6.762;2023-12-20T14:09:35;8.77;;;4.22;;
20491;SDS011;10404;51.468;6.762;2023-12-20T14:12:01;9.98;;;4.80;;
20491;SDS011;10404;51.468;6.762;2023-12-20T14:14:27;8.85;;;5.50;;
20491;SDS011;10404;51.468;6.762;2023-12-20T14:16:52;10.32;;;4.80;;
20491;SDS011;10404;51.468;6.762;2023-12-20T14:19:18;8.23;;;3.83;;
20491;SDS011;10404;51.468;6.762;2023-12-20T14:21:43;11.13;;;5.10;;
20491;SDS011;10404;51.468;6.762;2023-12-20T14:24:14;9.55;;;4.85;;
20491;SDS011;10404;51.468;6.762;2023-12-20T14:26:43;10.07;;;5.00;;
20491;SDS011;10404;51.468;6.762;2023-12-20T14:29:09;8.55;;;5.25;;
20491;SDS011;10404;51.468;6.762;2023-12-20T14:31:34;8.90;;;4.60;;
20491;SDS011;10404;51.468;6.762;2023-12-20T14:34:00;9.38;;;4.97;;
20491;SDS011;10404;51.468;6.762;2023-12-20T14:36:28;8.65;;;5.15;;
20491;SDS011;10404;51.468;6.762;2023-12-20T14:38:55;7.50;;;4.90;;
20491;SDS011;10404;51.468;6.762;2023-12-20T14:41:21;8.88;;;5.13;;